Time;durP1;ratioP1;P1;durP2;ratioP2;P2;SDS_P1;SDS_P2;PMS_P1;PMS_P2;Temp;Humidity;BMP_temperature;BMP_pressure;BME280_temperature;BME280_humidity;BME280_pressure;Samples;Min_cycle;Max_cycle;Signal;HPM_P1;HPM_P2
2022/09/03 00:02:08;;;;;;;8.60;5.43;;;;;;;19.50;nan;-24359.56;4952764;28;20678;-59
2022/09/03 00:05:04;;;;;;;8.38;5.45;;;;;;;19.54;nan;-24360.66;4951372;28;20805;-58
2022/09/03 00:07:38;;;;;;;10.18;5.03;;;;;;;19.70;nan;-24365.25;4921950;29;20196;-59
2022/09/03 00:10:09;;;;;;;10.77;6.07;;;;;;;19.53;nan;-24360.38;4951560;28;20186;-59
2022/09/03 00:12:42;;;;;;;12.27;6.15;;;;;;;19.23;nan;-24352.31;4950868;28;20178;-59
2022/09/03 00:15:16;;;;;;;10.70;5.88;;;;;;;19.54;nan;-24360.66;4952170;28;20185;-58
2022/09/03 00:18:06;;;;;;;10.63;6.50;;;;;;;19.26;nan;-24353.00;4950817;29;20185;-59
2022/09/03 00:20:40;;;;;;;11.57;6.60;;;;;;;19.16;nan;-24350.22;4950818;29;20238;-58
2022/09/03 00:23:27;;;;;;;13.75;6.82;;;;;;;19.67;nan;-24364.44;4950062;29;21409;-59
2022/09/03 00:25:57;;;;;;;13.98;6.93;;;;;;;19.36;nan;-24355.81;4950389;29;20704;-59
2022/09/03 00:28:29;;;;;;;14.50;7.28;;;;;;;19.37;nan;-24356.22;4950387;29;20190;-59
2022/09/03 00:31:50;;;;;;;13.20;7.50;;;;;;;19.73;nan;-24366.09;4951820;28;20187;-59
2022/09/03 00:34:29;;;;;;;12.25;6.95;;;;;;;19.74;nan;-24366.22;4946051;29;20197;-58
2022/09/03 00:36:55;;;;;;;12.70;6.95;;;;;;;19.75;nan;-24366.66;4951740;28;20182;-59
2022/09/03 00:39:24;;;;;;;16.55;7.05;;;;;;;19.47;nan;-24358.84;4952631;28;20264;-59
2022/09/03 00:42:08;;;;;;;10.40;6.30;;;;;;;19.77;nan;-24367.19;4952323;28;20201;-59
2022/09/03 00:44:36;;;;;;;19.08;7.97;;;;;;;19.87;nan;-24369.84;4952347;29;20186;-58
2022/09/03 00:47:20;;;;;;;11.98;7.22;;;;;;;19.77;nan;-24367.06;4951543;28;20648;-58
2022/09/03 00:50:14;;;;;;;12.13;6.60;;;;;;;19.70;nan;-24365.13;4949318;29;20253;-58
2022/09/03 00:52:58;;;;;;;13.70;7.60;;;;;;;19.77;nan;-24367.06;4948805;29;20189;-59
2022/09/03 00:55:57;;;;;;;12.63;6.97;;;;;;;19.72;nan;-24365.69;4950922;29;20652;-59
2022/09/03 00:58:29;;;;;;;11.18;6.00;;;;;;;19.78;nan;-24367.34;4950378;29;20186;-59
2022/09/03 01:00:55;;;;;;;13.05;6.35;;;;;;;19.37;nan;-24356.22;4951561;28;20570;-59
2022/09/03 01:03:50;;;;;;;14.32;6.65;;;;;;;19.69;nan;-24364.84;4952250;28;20254;-58
2022/09/03 01:06:36;;;;;;;10.02;6.00;;;;;;;19.38;nan;-24356.34;4951361;29;20182;-59
2022/09/03 01:09:30;;;;;;;12.27;6.30;;;;;;;19.68;nan;-24364.56;4950586;29;20188;-59
2022/09/03 01:12:30;;;;;;;11.70;6.05;;;;;;;19.70;nan;-24365.13;4951390;29;20228;-59
2022/09/03 01:14:59;;;;;;;11.90;5.75;;;;;;;19.80;nan;-24368.03;4930143;28;20225;-58
2022/09/03 01:18:02;;;;;;;12.52;6.85;;;;;;;19.81;nan;-24368.31;4951943;28;20188;-59
2022/09/03 01:20:40;;;;;;;10.07;6.20;;;;;;;19.81;nan;-24368.19;4949960;29;20323;-59
2022/09/03 01:23:19;;;;;;;15.85;7.00;;;;;;;19.55;nan;-24361.09;4950771;29;20213;-59
2022/09/03 01:26:06;;;;;;;10.35;5.90;;;;;;;19.71;nan;-24365.41;4948985;29;20201;-59
2022/09/03 01:28:58;;;;;;;9.63;5.70;;;;;;;19.56;nan;-24361.22;4950254;29;20201;-58
2022/09/03 01:31:56;;;;;;;11.90;6.13;;;;;;;19.55;nan;-24360.94;4950231;29;20190;-59
2022/09/03 01:34:57;;;;;;;11.35;5.95;;;;;;;19.58;nan;-24361.78;4951592;28;20182;-59
2022/09/03 01:37:37;;;;;;;15.95;6.50;;;;;;;19.28;nan;-24353.72;4939743;28;20209;-58
2022/09/03 01:40:21;;;;;;;11.13;5.70;;;;;;;19.69;nan;-24364.97;4951362;28;20216;-59
2022/09/03 01:43:04;;;;;;;14.40;6.65;;;;;;;19.63;nan;-24363.31;4949393;29;20186;-59
2022/09/03 01:45:30;;;;;;;9.35;5.57;;;;;;;19.71;nan;-24365.41;4951532;29;20181;-59
2022/09/03 01:48:10;;;;;;;10.82;6.28;;;;;;;19.52;nan;-24360.25;4950611;28;20186;-58
2022/09/03 01:50:49;;;;;;;10.85;5.82;;;;;;;19.62;nan;-24363.03;4948158;29;20547;-59
2022/09/03 01:53:52;;;;;;;11.73;5.25;;;;;;;19.71;nan;-24365.53;4951857;29;20205;-59
2022/09/03 01:56:26;;;;;;;10.68;5.85;;;;;;;19.75;nan;-24366.50;4951220;29;20676;-59
2022/09/03 01:59:02;;;;;;;12.50;6.18;;;;;;;19.26;nan;-24353.16;4951412;28;20220;-59
2022/09/03 02:01:44;;;;;;;10.50;5.57;;;;;;;19.31;nan;-24354.53;4950834;29;20205;-58
2022/09/03 02:04:19;;;;;;;10.30;5.93;;;;;;;19.69;nan;-24364.84;4951331;29;20190;-59
2022/09/03 02:06:47;;;;;;;9.35;5.13;;;;;;;19.78;nan;-24367.34;4948093;29;20181;-59
2022/09/03 02:09:14;;;;;;;10.57;4.97;;;;;;;19.76;nan;-24366.78;4953470;28;20193;-59
2022/09/03 02:11:42;;;;;;;8.18;4.95;;;;;;;19.88;nan;-24370.13;4954741;28;20602;-58
2022/09/03 02:14:08;;;;;;;9.30;5.32;;;;;;;19.60;nan;-24362.34;4953635;29;20178;-59
2022/09/03 02:16:34;;;;;;;14.00;5.50;;;;;;;19.52;nan;-24360.13;4955443;28;20277;-59
2022/09/03 02:19:04;;;;;;;11.98;5.53;;;;;;;19.78;nan;-24367.34;4954972;28;20309;-58
2022/09/03 02:21:35;;;;;;;9.27;5.35;;;;;;;19.60;nan;-24362.47;4954679;28;20625;-59
2022/09/03 02:24:03;;;;;;;14.02;4.80;;;;;;;19.79;nan;-24367.75;4954913;28;20197;-59
2022/09/03 02:26:29;;;;;;;9.05;5.20;;;;;;;19.84;nan;-24369.00;4953837;28;20205;-59
2022/09/03 02:28:56;;;;;;;9.50;5.20;;;;;;;19.55;nan;-24360.94;4953354;28;20214;-59
2022/09/03 02:31:22;;;;;;;10.38;4.88;;;;;;;19.46;nan;-24358.44;4953268;28;20227;-59
2022/09/03 02:33:49;;;;;;;7.85;4.65;;;;;;;19.57;nan;-24361.50;4955102;28;20192;-58
2022/09/03 02:36:19;;;;;;;8.40;5.00;;;;;;;19.74;nan;-24366.38;4954055;28;20186;-59
2022/09/03 02:38:45;;;;;;;9.77;5.25;;;;;;;19.69;nan;-24364.84;4953436;29;20617;-59
2022/09/03 02:41:12;;;;;;;8.82;5.18;;;;;;;19.73;nan;-24366.09;4953345;29;20249;-59
2022/09/03 02:43:39;;;;;;;8.75;4.90;;;;;;;19.90;nan;-24370.53;4954485;28;20212;-59
2022/09/03 02:46:13;;;;;;;9.32;5.10;;;;;;;19.81;nan;-24368.31;4953895;29;20182;-59
2022/09/03 02:48:39;;;;;;;9.60;5.00;;;;;;;19.76;nan;-24366.94;4951055;29;20200;-59
2022/09/03 02:51:04;;;;;;;10.10;4.68;;;;;;;19.73;nan;-24365.94;4954064;28;20260;-59
2022/09/03 02:53:30;;;;;;;7.80;4.68;;;;;;;19.82;nan;-24368.59;4954331;28;20186;-58
2022/09/03 02:55:59;;;;;;;8.50;5.18;;;;;;;19.64;nan;-24363.59;4954091;28;20241;-58
2022/09/03 02:58:25;;;;;;;11.25;4.97;;;;;;;19.77;nan;-24367.06;4954133;28;20210;-59
2022/09/03 03:00:51;;;;;;;8.13;4.97;;;;;;;19.54;nan;-24360.81;4953669;28;20201;-59
2022/09/03 03:03:17;;;;;;;8.18;4.65;;;;;;;19.71;nan;-24365.53;4954353;28;20178;-59
2022/09/03 03:05:47;;;;;;;8.30;4.68;;;;;;;19.81;nan;-24368.31;4954077;28;20705;-59
2022/09/03 03:08:15;;;;;;;9.02;5.07;;;;;;;19.80;nan;-24367.91;4954447;28;20182;-59
2022/09/03 03:10:43;;;;;;;11.18;5.60;;;;;;;19.53;nan;-24360.53;4953518;28;20244;-59
2022/09/03 03:13:09;;;;;;;11.60;4.28;;;;;;;19.25;nan;-24352.88;4953623;29;20642;-60
2022/09/03 03:15:35;;;;;;;10.77;5.07;;;;;;;19.31;nan;-24354.53;4950127;29;20269;-58
2022/09/03 03:18:01;;;;;;;9.07;5.30;;;;;;;19.68;nan;-24364.69;4953362;28;20268;-58
2022/09/03 03:20:26;;;;;;;7.03;4.47;;;;;;;19.67;nan;-24364.44;4952545;28;20234;-59
2022/09/03 03:22:52;;;;;;;12.23;5.35;;;;;;;19.55;nan;-24360.94;4953260;28;20185;-60
2022/09/03 03:25:17;;;;;;;8.15;4.93;;;;;;;19.61;nan;-24362.63;4954467;28;20611;-59
2022/09/03 03:27:43;;;;;;;7.53;4.55;;;;;;;19.24;nan;-24352.59;4953718;28;20601;-60
2022/09/03 03:30:09;;;;;;;7.85;4.85;;;;;;;19.35;nan;-24355.66;4953240;28;20648;-60
2022/09/03 03:32:36;;;;;;;10.45;5.50;;;;;;;18.84;nan;-24341.47;4954040;28;20209;-59
2022/09/03 03:35:02;;;;;;;8.52;4.97;;;;;;;19.37;nan;-24356.06;4952749;28;20573;-60
2022/09/03 03:37:28;;;;;;;8.27;4.82;;;;;;;18.98;nan;-24345.38;4951804;28;20174;-59
2022/09/03 03:39:53;;;;;;;8.43;4.53;;;;;;;19.41;nan;-24357.34;4952089;28;20196;-57
2022/09/03 03:42:19;;;;;;;10.55;5.82;;;;;;;19.34;nan;-24355.38;4953175;28;20221;-58
2022/09/03 03:44:44;;;;;;;8.55;5.07;;;;;;;18.94;nan;-24344.38;4952438;28;20182;-59
2022/09/03 03:47:11;;;;;;;7.65;4.80;;;;;;;18.84;nan;-24341.47;4953594;28;20590;-58
2022/09/03 03:49:36;;;;;;;9.70;5.18;;;;;;;19.07;nan;-24347.72;4949450;29;20182;-58
2022/09/03 03:52:03;;;;;;;10.43;4.35;;;;;;;18.92;nan;-24343.69;4952504;28;20206;-58
2022/09/03 03:54:29;;;;;;;11.70;5.07;;;;;;;18.99;nan;-24345.66;4953012;28;20186;-58
2022/09/03 03:56:55;;;;;;;9.52;4.43;;;;;;;18.92;nan;-24343.69;4952420;28;20242;-58
2022/09/03 03:59:20;;;;;;;9.57;5.00;;;;;;;19.37;nan;-24356.22;4952502;28;20186;-58
2022/09/03 04:01:49;;;;;;;6.68;4.70;;;;;;;19.28;nan;-24353.72;4952630;28;20214;-58
2022/09/03 04:04:15;;;;;;;9.82;5.20;;;;;;;19.03;nan;-24346.75;4952663;28;20214;-59
2022/09/03 04:06:41;;;;;;;8.13;4.97;;;;;;;19.38;nan;-24356.50;4952202;28;20261;-58
2022/09/03 04:09:06;;;;;;;11.73;5.18;;;;;;;19.21;nan;-24351.75;4952238;28;20708;-58
2022/09/03 04:11:32;;;;;;;7.97;4.85;;;;;;;19.66;nan;-24364.00;4952944;28;20190;-59
2022/09/03 04:13:57;;;;;;;9.07;4.63;;;;;;;19.73;nan;-24365.94;4952215;28;20182;-59
2022/09/03 04:16:26;;;;;;;7.45;4.15;;;;;;;19.19;nan;-24351.06;4953210;28;20703;-58
2022/09/03 04:18:56;;;;;;;7.38;4.55;;;;;;;19.59;nan;-24362.19;4952309;28;20677;-59
2022/09/03 04:21:27;;;;;;;7.82;4.35;;;;;;;19.56;nan;-24361.22;4949970;29;20240;-59
2022/09/03 04:23:53;;;;;;;7.85;4.40;;;;;;;20.22;nan;-24379.44;4951389;28;20280;-59
2022/09/03 04:26:22;;;;;;;7.47;4.35;;;;;;;20.07;nan;-24375.41;4951831;28;20181;-59
2022/09/03 04:28:47;;;;;;;8.05;4.00;;;;;;;20.54;nan;-24388.19;4951999;28;20272;-59
2022/09/03 04:31:15;;;;;;;7.68;4.22;;;;;;;20.46;nan;-24385.97;4951043;28;20213;-58
2022/09/03 04:33:41;;;;;;;6.18;3.78;;;;;;;20.39;nan;-24384.03;4950904;28;20217;-59
2022/09/03 04:36:09;;;;;;;7.28;3.50;;;;;;;20.31;nan;-24381.94;4951044;28;20213;-59
2022/09/03 04:38:37;;;;;;;6.05;3.20;;;;;;;20.41;nan;-24384.56;4951636;29;20178;-59
2022/09/03 04:41:05;;;;;;;5.90;3.80;;;;;;;20.31;nan;-24381.78;4948754;29;20281;-58
2022/09/03 04:43:31;;;;;;;5.55;3.17;;;;;;;20.31;nan;-24381.78;4952320;28;20657;-58
2022/09/03 04:46:02;;;;;;;5.28;3.13;;;;;;;20.18;nan;-24378.47;4947994;28;20261;-58
2022/09/03 04:48:29;;;;;;;6.65;3.17;;;;;;;20.12;nan;-24376.78;4952449;28;20289;-58
2022/09/03 04:51:07;;;;;;;6.63;3.25;;;;;;;20.17;nan;-24378.19;4952820;28;20186;-59
2022/09/03 04:53:37;;;;;;;4.05;2.80;;;;;;;19.84;nan;-24369.00;4951337;29;20688;-58
2022/09/03 04:56:21;;;;;;;8.93;3.42;;;;;;;20.24;nan;-24380.00;4947807;28;20625;-58
2022/09/03 04:58:48;;;;;;;6.57;3.60;;;;;;;20.71;nan;-24392.91;4947798;29;20649;-60
2022/09/03 05:01:18;;;;;;;4.80;2.85;;;;;;;20.78;nan;-24394.84;4950252;28;20279;-59
2022/09/03 05:03:44;;;;;;;5.82;3.22;;;;;;;20.97;nan;-24399.97;4950963;28;20597;-59
2022/09/03 05:06:10;;;;;;;3.72;2.60;;;;;;;20.84;nan;-24396.38;4950043;28;20189;-58
2022/09/03 05:08:36;;;;;;;6.80;3.05;;;;;;;20.89;nan;-24397.91;4950815;28;20277;-58
2022/09/03 05:11:04;;;;;;;6.22;2.83;;;;;;;20.59;nan;-24389.72;4951729;28;20317;-57
2022/09/03 05:13:30;;;;;;;5.10;3.17;;;;;;;21.02;nan;-24401.50;4951334;28;20173;-58
2022/09/03 05:16:05;;;;;;;4.70;2.97;;;;;;;20.81;nan;-24395.66;4951333;28;20296;-57
2022/09/03 05:18:31;;;;;;;5.97;3.08;;;;;;;21.30;nan;-24409.00;4950303;28;20691;-58
2022/09/03 05:21:06;;;;;;;4.10;2.45;;;;;;;21.26;nan;-24408.03;4949111;28;20237;-57
2022/09/03 05:23:35;;;;;;;4.40;2.45;;;;;;;21.28;nan;-24408.44;4945464;29;20173;-57
2022/09/03 05:26:05;;;;;;;4.07;2.65;;;;;;;21.43;nan;-24412.59;4944780;29;20217;-58
2022/09/03 05:28:30;;;;;;;4.85;2.83;;;;;;;21.15;nan;-24404.97;4945694;28;20182;-58
2022/09/03 05:31:01;;;;;;;6.57;3.10;;;;;;;21.48;nan;-24414.13;4943857;28;20192;-59
2022/09/03 05:33:27;;;;;;;5.78;2.85;;;;;;;21.53;nan;-24415.50;4943136;29;20762;-58
2022/09/03 05:35:54;;;;;;;5.05;2.90;;;;;;;21.84;nan;-24423.94;4945797;28;20190;-58
2022/09/03 05:38:19;;;;;;;4.85;2.97;;;;;;;21.91;nan;-24425.91;4944899;29;20177;-61
2022/09/03 05:40:45;;;;;;;4.25;2.67;;;;;;;22.09;nan;-24430.59;4945893;28;20241;-59
2022/09/03 05:43:10;;;;;;;4.03;2.45;;;;;;;21.83;nan;-24423.69;4946171;28;20209;-58
2022/09/03 05:45:36;;;;;;;4.50;2.40;;;;;;;21.87;nan;-24424.66;4949174;28;20186;-58
2022/09/03 05:48:01;;;;;;;3.88;2.83;;;;;;;21.85;nan;-24424.22;4948438;28;20554;-58
2022/09/03 05:50:27;;;;;;;4.28;3.00;;;;;;;21.82;nan;-24423.41;4949660;28;20193;-58
2022/09/03 05:52:52;;;;;;;4.93;2.80;;;;;;;21.95;nan;-24426.88;4948805;28;20710;-59
2022/09/03 05:55:18;;;;;;;6.25;2.53;;;;;;;22.07;nan;-24430.03;4946341;28;20184;-58
2022/09/03 05:57:44;;;;;;;3.92;2.40;;;;;;;21.84;nan;-24423.94;4948514;28;20664;-59
2022/09/03 06:00:10;;;;;;;4.65;2.72;;;;;;;22.13;nan;-24431.72;4947396;28;20213;-58
2022/09/03 06:02:35;;;;;;;4.93;2.80;;;;;;;;;;4948477;28;20264;-58
2022/09/03 06:05:01;;;;;;;4.45;2.25;;;;;;;22.15;nan;-24432.25;4947478;28;20225;-59
2022/09/03 06:07:26;;;;;;;4.28;2.55;;;;;;;22.40;nan;-24439.19;4949909;28;20221;-58
2022/09/03 06:09:53;;;;;;;4.18;2.70;;;;;;;22.24;nan;-24434.75;4947935;28;20584;-59
2022/09/03 06:12:18;;;;;;;5.75;2.95;;;;;;;22.50;nan;-24441.81;4948918;29;20195;-58
2022/09/03 06:14:44;;;;;;;7.88;4.40;;;;;;;22.44;nan;-24440.44;4948738;28;20193;-58
2022/09/03 06:17:11;;;;;;;5.47;3.22;;;;;;;22.81;nan;-24450.38;4948304;28;20268;-59
2022/09/03 06:19:37;;;;;;;6.05;3.45;;;;;;;23.11;nan;-24458.53;4948657;28;20312;-59
2022/09/03 06:22:02;;;;;;;8.02;4.53;;;;;;;23.01;nan;-24455.78;4946995;29;20296;-58
2022/09/03 06:24:28;;;;;;;5.70;3.83;;;;;;;23.24;nan;-24462.28;4947926;29;20695;-59
2022/09/03 06:26:55;;;;;;;6.15;3.40;;;;;;;23.57;nan;-24471.13;4947255;28;20633;-59
2022/09/03 06:29:20;;;;;;;6.05;3.90;;;;;;;23.51;nan;-24469.59;4947244;28;20189;-58
2022/09/03 06:31:49;;;;;;;8.68;3.63;;;;;;;23.20;nan;-24461.16;4947531;28;20735;-59
2022/09/03 06:34:17;;;;;;;7.03;3.65;;;;;;;23.13;nan;-24459.22;4947606;29;20178;-58
2022/09/03 06:36:44;;;;;;;6.60;3.17;;;;;;;23.32;nan;-24464.47;4947379;28;20190;-58
2022/09/03 06:39:09;;;;;;;5.32;3.35;;;;;;;23.35;nan;-24465.19;4949044;28;20294;-59
2022/09/03 06:41:35;;;;;;;6.80;3.70;;;;;;;23.40;nan;-24466.56;4947767;28;20706;-58
2022/09/03 06:44:03;;;;;;;4.95;3.00;;;;;;;23.26;nan;-24462.69;4947436;28;20182;-59
2022/09/03 06:46:33;;;;;;;5.80;3.13;;;;;;;23.26;nan;-24462.81;4945571;29;20198;-57
2022/09/03 06:48:59;;;;;;;5.35;3.45;;;;;;;23.40;nan;-24466.41;4947428;28;20240;-57
2022/09/03 06:51:27;;;;;;;6.63;3.20;;;;;;;23.40;nan;-24466.56;4948990;28;20673;-57
2022/09/03 06:53:58;;;;;;;6.38;3.55;;;;;;;23.11;nan;-24458.53;4946563;28;20194;-58
2022/09/03 06:56:27;;;;;;;8.43;3.38;;;;;;;22.74;nan;-24448.44;4948633;29;20189;-58
2022/09/03 06:58:55;;;;;;;5.78;3.40;;;;;;;23.30;nan;-24463.94;4947422;29;20182;-59
2022/09/03 07:01:26;;;;;;;5.22;3.47;;;;;;;23.33;nan;-24464.63;4947147;29;20608;-58
2022/09/03 07:03:55;;;;;;;4.00;2.83;;;;;;;23.49;nan;-24469.03;4948122;28;20186;-59
2022/09/03 07:06:21;;;;;;;5.13;3.33;;;;;;;23.80;nan;-24477.31;4947293;28;20183;-58
2022/09/03 07:08:47;;;;;;;4.75;2.78;;;;;;;24.17;nan;-24487.69;4948749;28;20178;-58
2022/09/03 07:11:18;;;;;;;6.70;3.63;;;;;;;24.05;nan;-24484.22;4949001;28;20557;-58
2022/09/03 07:13:46;;;;;;;6.90;2.90;;;;;;;24.08;nan;-24485.19;4948242;29;20178;-58
2022/09/03 07:16:14;;;;;;;6.70;3.25;;;;;;;24.22;nan;-24488.78;4946915;29;20538;-58
2022/09/03 07:18:42;;;;;;;5.70;3.42;;;;;;;24.16;nan;-24487.41;4946823;28;20182;-57
2022/09/03 07:21:10;;;;;;;6.22;3.00;;;;;;;24.02;nan;-24483.41;4947695;29;20308;-58
2022/09/03 07:23:37;;;;;;;5.93;3.25;;;;;;;24.28;nan;-24490.44;4947645;28;20178;-58
2022/09/03 07:26:09;;;;;;;5.18;3.25;;;;;;;24.17;nan;-24487.69;4946543;28;20193;-58
2022/09/03 07:28:36;;;;;;;5.72;3.38;;;;;;;24.36;nan;-24492.63;4946553;29;20186;-58
2022/09/03 07:31:05;;;;;;;5.82;3.03;;;;;;;24.34;nan;-24492.22;4946569;28;20685;-58
2022/09/03 07:33:32;;;;;;;4.97;3.15;;;;;;;24.71;nan;-24502.28;4947563;29;20186;-58
2022/09/03 07:36:24;;;;;;;5.03;3.03;;;;;;;24.83;nan;-24505.44;4947883;28;20182;-58
2022/09/03 07:38:50;;;;;;;4.60;2.90;;;;;;;24.74;nan;-24502.97;4945843;28;20625;-58
2022/09/03 07:41:16;;;;;;;4.32;2.15;;;;;;;24.83;nan;-24505.59;4947819;28;20206;-58
2022/09/03 07:43:48;;;;;;;4.57;2.60;;;;;;;24.96;nan;-24509.03;4947637;28;20694;-62
2022/09/03 07:46:21;;;;;;;4.57;2.30;;;;;;;25.08;nan;-24512.34;4946158;28;20213;-58
2022/09/03 07:48:51;;;;;;;4.30;2.55;;;;;;;25.02;nan;-24510.69;4946894;29;20208;-58
2022/09/03 07:51:19;;;;;;;2.40;2.00;;;;;;;25.20;nan;-24515.63;4950924;28;20614;-58
2022/09/03 07:53:45;;;;;;;3.75;2.42;;;;;;;25.20;nan;-24515.63;4953470;28;20206;-59
2022/09/03 07:56:11;;;;;;;4.32;2.35;;;;;;;25.24;nan;-24516.59;4953407;28;20568;-57
2022/09/03 07:58:38;;;;;;;3.53;2.38;;;;;;;25.21;nan;-24515.91;4953222;28;20193;-57
2022/09/03 08:01:15;;;;;;;3.90;2.75;;;;;;;24.99;nan;-24509.84;4953534;29;20717;-59
2022/09/03 08:03:46;;;;;;;3.15;2.33;;;;;;;24.87;nan;-24506.69;4952963;28;20660;-58
2022/09/03 08:06:13;;;;;;;4.22;2.78;;;;;;;25.31;nan;-24518.66;4945122;28;20538;-59
2022/09/03 08:08:39;;;;;;;7.03;2.40;;;;;;;25.06;nan;-24511.91;4952888;28;20176;-58
2022/09/03 08:11:10;;;;;;;4.00;2.55;;;;;;;25.34;nan;-24519.34;4952952;29;20194;-59
2022/09/03 08:13:47;;;;;;;3.67;2.30;;;;;;;25.12;nan;-24513.31;4952729;28;20177;-58
2022/09/03 08:16:15;;;;;;;3.03;2.30;;;;;;;25.55;nan;-24525.00;4946465;29;20193;-59
2022/09/03 08:18:41;;;;;;;4.38;2.70;;;;;;;25.32;nan;-24518.94;4952489;28;20178;-58
2022/09/03 08:21:15;;;;;;;4.72;2.55;;;;;;;25.69;nan;-24529.00;4952418;28;20638;-59
2022/09/03 08:23:46;;;;;;;4.32;2.42;;;;;;;25.74;nan;-24530.38;4952273;28;20224;-58
2022/09/03 08:26:13;;;;;;;5.55;3.08;;;;;;;25.69;nan;-24528.84;4944664;29;20579;-58
2022/09/03 08:28:39;;;;;;;4.85;2.88;;;;;;;25.70;nan;-24529.13;4951730;28;20229;-59
2022/09/03 08:31:12;;;;;;;4.40;2.63;;;;;;;25.78;nan;-24531.31;4951012;29;20218;-58
2022/09/03 08:33:41;;;;;;;3.67;2.67;;;;;;;25.66;nan;-24528.16;4947797;29;20623;-59
2022/09/03 08:36:15;;;;;;;5.18;2.85;;;;;;;25.95;nan;-24536.13;4952617;28;20550;-58
2022/09/03 08:38:44;;;;;;;4.70;3.08;;;;;;;25.95;nan;-24536.13;4952430;28;20362;-58
2022/09/03 08:41:28;;;;;;;4.78;2.75;;;;;;;25.99;nan;-24537.09;4942018;28;20277;-58
2022/09/03 08:44:12;;;;;;;5.53;3.00;;;;;;;26.13;nan;-24540.81;4952875;28;20179;-57
2022/09/03 08:46:53;;;;;;;5.78;2.90;;;;;;;26.38;nan;-24547.81;4952506;29;20235;-56
2022/09/03 08:49:23;;;;;;;4.97;3.15;;;;;;;26.40;nan;-24548.22;4952126;29;20653;-58
2022/09/03 08:51:51;;;;;;;5.88;3.28;;;;;;;26.31;nan;-24545.75;4952657;29;20249;-57
2022/09/03 08:54:18;;;;;;;2.95;2.35;;;;;;;26.23;nan;-24543.69;4952438;28;20544;-57
2022/09/03 08:56:45;;;;;;;4.25;2.95;;;;;;;26.09;nan;-24539.84;4952164;28;20204;-58
2022/09/03 08:59:10;;;;;;;5.80;3.42;;;;;;;26.30;nan;-24545.47;4951770;28;20182;-58
2022/09/03 09:02:16;;;;;;;4.72;3.35;;;;;;;26.58;nan;-24553.03;4951150;29;20712;-59
2022/09/03 09:05:09;;;;;;;3.40;2.58;;;;;;;26.67;nan;-24555.66;4893274;28;20194;-58
2022/09/03 09:07:50;;;;;;;5.90;3.42;;;;;;;26.84;nan;-24560.16;4947582;29;20178;-58
2022/09/03 09:10:22;;;;;;;5.22;2.88;;;;;;;26.95;nan;-24563.19;4951001;29;20205;-58
2022/09/03 09:13:18;;;;;;;4.03;2.75;;;;;;;26.77;nan;-24558.25;4952156;28;20272;-58
2022/09/03 09:16:04;;;;;;;5.68;3.10;;;;;;;26.91;nan;-24562.09;4940838;29;20182;-58
2022/09/03 09:21:23;;;;;;;5.00;3.08;;;;;;;27.00;100.00;-24564.44;5072500;27;20948;-58
2022/09/03 09:23:49;;;;;;;6.50;2.97;;;;;;;27.17;100.00;-24569.09;5060065;28;20643;-59
2022/09/03 09:26:20;;;;;;;5.35;3.28;;;;;;;27.44;100.00;-24576.34;5049400;28;20281;-59
2022/09/03 09:28:52;;;;;;;4.03;2.58;;;;;;;27.53;100.00;-24578.81;5060109;28;20191;-59
2022/09/03 09:31:19;;;;;;;4.75;2.90;;;;;;;27.45;100.00;-24576.78;5048379;28;20634;-60
2022/09/03 09:33:45;;;;;;;6.22;3.08;;;;;;;27.50;100.00;-24578.16;5048488;28;20195;-59
2022/09/03 09:36:15;;;;;;;5.07;2.97;;;;;;;27.23;100.00;-24570.88;5048148;28;20200;-59
2022/09/03 09:38:42;;;;;;;5.88;2.90;;;;;;;27.19;100.00;-24569.63;5048285;28;20242;-59
2022/09/03 09:41:12;;;;;;;5.53;2.90;;;;;;;27.59;100.00;-24580.59;5048039;28;20214;-61
2022/09/03 09:43:39;;;;;;;4.82;2.83;;;;;;;27.53;100.00;-24578.81;5048339;28;20224;-59
2022/09/03 09:46:24;;;;;;;6.60;3.17;;;;;;;27.54;100.00;-24579.09;5062006;28;20587;-60
2022/09/03 09:48:56;;;;;;;4.47;2.65;;;;;;;27.40;100.00;-24575.41;5048162;28;20182;-60
2022/09/03 09:51:30;;;;;;;4.45;2.65;;;;;;;27.66;100.00;-24582.53;5047829;28;20175;-60
2022/09/03 09:54:18;;;;;;;4.68;2.60;;;;;;;27.94;100.00;-24590.06;5048048;28;20269;-59
2022/09/03 09:56:45;;;;;;;4.22;2.75;;;;;;;27.84;100.00;-24587.19;5047773;28;20257;-59
2022/09/03 09:59:13;;;;;;;5.15;2.90;;;;;;;27.78;100.00;-24585.69;5047831;28;20204;-58
2022/09/03 10:01:41;;;;;;;4.13;2.78;;;;;;;27.79;100.00;-24585.94;5047841;28;20548;-61
2022/09/03 10:04:20;;;;;;;5.13;2.75;;;;;;;27.84;100.00;-24587.31;5048096;28;20166;-59
2022/09/03 10:06:55;;;;;;;4.35;2.88;;;;;;;27.97;100.00;-24590.75;5047826;28;20178;-59
2022/09/03 10:09:29;;;;;;;4.22;3.03;;;;;;;28.04;100.00;-24592.66;5047955;28;20170;-59
2022/09/03 10:12:18;;;;;;;5.47;3.30;;;;;;;28.23;100.00;-24597.88;5047830;28;20182;-59
2022/09/03 10:14:50;;;;;;;4.38;2.78;;;;;;;28.03;100.00;-24592.38;5047813;28;20166;-59
2022/09/03 10:17:23;;;;;;;5.20;3.25;;;;;;;27.81;100.00;-24586.34;5047653;28;20712;-59
2022/09/03 10:22:54;;;;;;;4.72;2.88;;;;;;;28.33;100.00;-24600.47;5047646;28;20220;-59
2022/09/03 10:25:23;;;;;;;4.65;2.95;;;;;;;28.32;100.00;-24600.31;5047841;28;20166;-59
2022/09/03 10:27:51;;;;;;;4.95;3.00;;;;;;;28.28;100.00;-24599.09;5047601;28;20242;-60
2022/09/03 10:30:16;;;;;;;4.53;2.70;;;;;;;28.46;100.00;-24604.16;5045310;28;20182;-59
2022/09/03 10:32:42;;;;;;;5.57;3.30;;;;;;;28.65;100.00;-24609.06;5033220;28;20174;-60
2022/09/03 10:35:29;;;;;;;5.80;2.97;;;;;;;28.45;100.00;-24603.75;5033753;28;20167;-58
2022/09/03 10:38:16;;;;;;;8.57;2.85;;;;;;;28.28;100.00;-24599.09;5033792;28;20181;-59
2022/09/03 10:41:20;;;;;;;4.47;2.58;;;;;;;28.85;94.54;-24614.56;5033279;28;20191;-58
2022/09/03 10:44:00;;;;;;;4.78;2.90;;;;;;;29.24;93.14;-24625.06;5032822;28;20307;-58
2022/09/03 10:46:28;;;;;;;5.25;2.95;;;;;;;28.87;94.94;-24615.22;5034024;28;20196;-58
2022/09/03 10:49:03;;;;;;;4.78;2.70;;;;;;;29.11;94.82;-24621.66;5033393;28;20171;-58
2022/09/03 10:51:35;;;;;;;4.40;3.08;;;;;;;29.08;93.99;-24620.69;5045228;28;20176;-58
2022/09/03 10:54:25;;;;;;;6.30;3.20;;;;;;;29.21;91.26;-24624.38;5033337;28;20270;-58
2022/09/03 10:57:05;;;;;;;4.00;2.65;;;;;;;28.93;90.44;-24616.88;5033865;28;20175;-59
2022/09/03 10:59:46;;;;;;;4.68;2.80;;;;;;;28.81;91.80;-24613.59;5033865;28;20202;-58
2022/09/03 11:02:30;;;;;;;5.03;2.63;;;;;;;28.88;92.23;-24615.50;5035572;28;20175;-58
2022/09/03 11:05:02;;;;;;;4.75;2.97;;;;;;;29.20;91.52;-24624.13;5057001;28;20226;-58
2022/09/03 11:07:36;;;;;;;5.18;3.10;;;;;;;28.99;92.83;-24618.38;5033043;28;20246;-58
2022/09/03 11:10:32;;;;;;;5.13;2.97;;;;;;;29.43;90.50;-24630.25;5033382;28;20535;-59
2022/09/03 11:12:58;;;;;;;5.78;3.28;;;;;;;29.28;90.48;-24626.16;5033319;28;20179;-60
2022/09/03 11:15:29;;;;;;;4.60;2.85;;;;;;;28.94;89.77;-24617.00;5033661;28;20175;-60
2022/09/03 11:17:59;;;;;;;4.53;2.72;;;;;;;29.18;88.73;-24623.56;5033524;28;20170;-59
2022/09/03 11:20:25;;;;;;;5.70;3.00;;;;;;;29.50;89.23;-24632.19;5033786;28;20328;-59
2022/09/03 11:23:02;;;;;;;7.00;3.28;;;;;;;29.74;88.89;-24638.59;5037835;28;20603;-60
2022/09/03 11:25:33;;;;;;;5.13;3.30;;;;;;;29.27;87.79;-24626.03;5044062;28;20657;-59
2022/09/03 11:28:11;;;;;;;6.40;2.80;;;;;;;29.47;89.05;-24631.34;5041298;28;20183;-59
2022/09/03 11:31:12;;;;;;;4.40;2.60;;;;;;;29.56;87.89;-24633.81;5037456;28;20182;-60
2022/09/03 11:33:42;;;;;;;4.60;2.80;;;;;;;29.06;87.01;-24620.28;5032293;28;20207;-60
2022/09/03 11:36:08;;;;;;;3.70;2.45;;;;;;;29.25;87.98;-24625.34;5046266;28;20235;-59
2022/09/03 11:38:34;;;;;;;4.80;2.67;;;;;;;29.86;87.42;-24641.84;5045359;28;20178;-59
2022/09/03 11:41:14;;;;;;;3.75;2.55;;;;;;;29.83;82.55;-24641.19;5032517;28;20190;-59
2022/09/03 11:43:40;;;;;;;3.97;1.92;;;;;;;29.32;84.92;-24627.25;5031565;28;20630;-59
2022/09/03 11:46:27;;;;;;;2.75;2.05;;;;;;;29.19;83.08;-24623.69;5036378;28;20178;-60
2022/09/03 11:48:54;;;;;;;3.75;2.00;;;;;;;29.01;84.38;-24618.78;5038920;28;20185;-59
2022/09/03 11:51:25;;;;;;;3.10;2.00;;;;;;;29.21;85.58;-24624.25;5040331;28;20182;-59
2022/09/03 11:53:59;;;;;;;2.30;1.88;;;;;;;29.16;83.48;-24622.88;5038525;28;20257;-59
2022/09/03 11:56:25;;;;;;;2.65;1.92;;;;;;;29.29;84.38;-24626.44;5048358;28;20182;-59
2022/09/03 11:59:06;;;;;;;2.28;1.85;;;;;;;28.98;82.58;-24618.25;5037649;28;20189;-59
2022/09/03 12:01:34;;;;;;;1.88;1.60;;;;;;;29.36;83.05;-24628.34;5044814;28;20182;-59
2022/09/03 12:04:03;;;;;;;2.75;1.90;;;;;;;29.29;84.42;-24626.44;5046461;28;20316;-59
2022/09/03 12:06:38;;;;;;;3.10;1.95;;;;;;;29.33;84.25;-24627.53;5036636;28;20695;-59